createdAt,value
2019-02-06T00:02:35.577Z,22.93
2019-02-06T00:05:16.189Z,23.87
2019-02-06T00:07:57.912Z,27.33
2019-02-06T00:10:40.540Z,26.93
2019-02-06T00:13:21.105Z,25.80
2019-02-06T00:16:03.774Z,26.37
2019-02-06T00:18:44.355Z,28.47
2019-02-06T00:21:25.362Z,27.57
2019-02-06T00:24:07.144Z,23.13
2019-02-06T00:26:50.283Z,21.77
2019-02-06T00:29:31.286Z,23.07
2019-02-06T00:32:12.138Z,24.20
2019-02-06T00:34:52.839Z,26.47
2019-02-06T00:37:33.500Z,23.20
2019-02-06T00:40:16.398Z,24.70
2019-02-06T00:42:57.117Z,24.67
2019-02-06T00:45:38.009Z,27.20
2019-02-06T00:48:18.990Z,25.77
2019-02-06T00:50:59.816Z,23.97
2019-02-06T00:53:40.513Z,26.70
2019-02-06T00:56:21.377Z,23.83
2019-02-06T00:59:02.144Z,26.30
2019-02-06T01:01:42.875Z,26.20
2019-02-06T01:04:23.647Z,26.77
2019-02-06T01:07:05.042Z,23.97
2019-02-06T01:09:45.761Z,25.83
2019-02-06T01:12:26.615Z,24.57
2019-02-06T01:15:07.433Z,25.10
2019-02-06T01:17:47.975Z,26.87
2019-02-06T01:20:29.336Z,23.70
2019-02-06T01:23:11.078Z,23.73
2019-02-06T01:25:51.628Z,26.83
2019-02-06T01:28:32.442Z,22.37
2019-02-06T01:31:13.960Z,21.93
2019-02-06T01:33:55.727Z,25.83
2019-02-06T01:36:36.553Z,25.77
2019-02-06T01:39:17.399Z,21.53
2019-02-06T01:41:58.211Z,24.33
2019-02-06T01:44:39.658Z,20.97
2019-02-06T01:47:20.796Z,24.70
2019-02-06T01:50:01.532Z,23.97
2019-02-06T01:52:42.157Z,24.47
2019-02-06T01:55:24.438Z,23.10
2019-02-06T01:57:52.876Z,22.70
2019-02-06T02:00:40.794Z,25.67
2019-02-06T02:03:29.119Z,24.73
2019-02-06T02:06:16.894Z,23.53
2019-02-06T02:12:20.631Z,21.67
2019-02-06T02:15:03.155Z,20.60
2019-02-06T02:17:43.869Z,22.03
2019-02-06T02:20:26.485Z,22.93
2019-02-06T02:23:08.985Z,19.87
2019-02-06T02:25:49.949Z,19.23
2019-02-06T02:28:30.679Z,18.37
2019-02-06T02:31:12.453Z,20.03
2019-02-06T02:33:53.440Z,14.33
2019-02-06T02:36:34.674Z,17.23
2019-02-06T02:39:15.846Z,18.87
2019-02-06T02:41:57.196Z,15.23
2019-02-06T02:44:38.641Z,13.37
2019-02-06T02:47:07.063Z,17.40
2019-02-06T02:49:54.869Z,13.87
2019-02-06T02:52:44.348Z,12.37
2019-02-06T02:55:52.983Z,12.67
2019-02-06T02:58:40.739Z,13.30
2019-02-06T03:01:48.152Z,11.93
2019-02-06T03:04:36.494Z,14.53
2019-02-06T03:07:43.742Z,13.77
2019-02-06T03:10:32.095Z,13.03
2019-02-06T03:13:21.621Z,23.67
2019-02-06T03:16:09.383Z,14.30
2019-02-06T03:18:57.714Z,15.93
2019-02-06T03:25:25.317Z,14.03
2019-02-06T03:28:13.076Z,16.37
2019-02-06T03:31:00.865Z,12.97
2019-02-06T03:34:09.347Z,11.93
2019-02-06T03:36:57.133Z,13.67
2019-02-06T03:39:45.130Z,14.67
2019-02-06T03:42:32.910Z,13.57
2019-02-06T03:45:20.678Z,13.37
2019-02-06T03:48:08.484Z,15.73
2019-02-06T03:50:57.380Z,12.57
2019-02-06T03:53:45.193Z,14.00
2019-02-06T03:56:33.038Z,16.97
2019-02-06T03:59:20.798Z,14.17
2019-02-06T04:02:08.577Z,14.90
2019-02-06T04:04:56.347Z,18.37
2019-02-06T04:07:44.189Z,16.00
2019-02-06T04:10:32.150Z,15.97
2019-02-06T04:13:40.329Z,15.97
2019-02-06T04:16:22.623Z,13.97
2019-02-06T04:19:03.031Z,15.43
2019-02-06T04:21:44.952Z,14.37
2019-02-06T04:24:27.099Z,14.33
2019-02-06T04:27:07.366Z,15.57
2019-02-06T04:29:48.855Z,15.73
2019-02-06T04:32:29.295Z,16.63
2019-02-06T04:35:10.275Z,17.13
2019-02-06T04:37:51.523Z,19.80
2019-02-06T04:40:31.678Z,18.13
2019-02-06T04:43:13.947Z,22.83
2019-02-06T04:45:55.163Z,21.17
2019-02-06T04:48:35.655Z,20.10
2019-02-06T04:51:17.598Z,23.80
2019-02-06T04:53:58.446Z,21.03
2019-02-06T04:56:39.994Z,23.23
2019-02-06T04:59:22.476Z,23.93
2019-02-06T05:02:04.996Z,24.87
2019-02-06T05:04:46.153Z,24.87
2019-02-06T05:07:26.511Z,23.57
2019-02-06T05:10:08.132Z,22.27
2019-02-06T05:12:50.664Z,27.63
2019-02-06T05:15:33.202Z,26.53
2019-02-06T05:18:15.098Z,24.67
2019-02-06T05:20:56.433Z,25.63
2019-02-06T05:23:37.042Z,27.77
2019-02-06T05:26:17.358Z,23.80
2019-02-06T05:28:59.471Z,28.47
2019-02-06T05:31:39.603Z,27.90
2019-02-06T05:34:20.075Z,28.03
2019-02-06T05:37:02.586Z,29.00
2019-02-06T05:39:45.259Z,27.80
2019-02-06T05:42:26.381Z,29.97
2019-02-06T05:45:07.102Z,29.67
2019-02-06T05:47:48.760Z,25.57
2019-02-06T05:50:30.229Z,28.33
2019-02-06T05:53:11.442Z,28.30
2019-02-06T05:55:53.377Z,29.27
2019-02-06T05:58:35.378Z,24.40
2019-02-06T06:01:17.704Z,25.47
2019-02-06T06:03:58.481Z,26.43
2019-02-06T06:06:40.664Z,28.37
2019-02-06T06:12:19.450Z,28.50
2019-02-06T06:15:00.746Z,28.97
2019-02-06T06:17:41.237Z,33.10
2019-02-06T06:20:22.230Z,37.23
2019-02-06T06:22:50.751Z,37.57
2019-02-06T06:25:38.535Z,36.93
2019-02-06T06:28:26.904Z,38.37
2019-02-06T06:31:15.042Z,39.13
2019-02-06T06:40:37.389Z,39.70
2019-02-06T06:43:25.168Z,38.20
2019-02-06T06:46:13.008Z,36.97
2019-02-06T06:49:00.780Z,41.00
2019-02-06T06:51:48.539Z,41.67
2019-02-06T06:54:36.527Z,40.67
2019-02-06T06:57:24.354Z,39.27
2019-02-06T07:00:31.466Z,41.67
2019-02-06T07:03:19.244Z,40.63
2019-02-06T07:06:08.756Z,39.50
2019-02-06T07:08:57.330Z,40.13
2019-02-06T07:11:45.204Z,38.53
2019-02-06T07:14:26.165Z,43.70
2019-02-06T07:17:06.854Z,42.33
2019-02-06T07:19:47.541Z,37.63
2019-02-06T07:22:28.554Z,39.23
2019-02-06T07:25:09.616Z,40.80
2019-02-06T07:27:50.963Z,40.67
2019-02-06T07:30:31.708Z,40.53
2019-02-06T07:33:12.424Z,37.70
2019-02-06T07:35:53.194Z,42.27
2019-02-06T07:38:33.685Z,39.57
2019-02-06T07:41:14.622Z,39.13
2019-02-06T07:43:55.317Z,39.27
2019-02-06T07:46:36.207Z,36.37
2019-02-06T07:49:17.956Z,39.53
2019-02-06T07:51:58.900Z,39.90
2019-02-06T07:54:41.453Z,41.73
2019-02-06T07:57:23.318Z,43.90
2019-02-06T08:00:04.156Z,41.53
2019-02-06T08:02:44.776Z,46.43
2019-02-06T08:05:25.427Z,47.67
2019-02-06T08:10:50.182Z,44.70
2019-02-06T08:13:32.358Z,44.50
2019-02-06T08:16:13.696Z,48.00
2019-02-06T08:18:54.527Z,50.00
2019-02-06T08:21:38.324Z,47.07
2019-02-06T08:24:18.624Z,45.73
2019-02-06T08:26:58.975Z,46.23
2019-02-06T08:29:39.561Z,47.37
2019-02-06T08:32:21.314Z,46.07
2019-02-06T08:35:03.344Z,49.77
2019-02-06T08:37:43.823Z,47.83
2019-02-06T08:40:24.161Z,45.80
2019-02-06T08:43:05.029Z,48.37
2019-02-06T08:45:45.366Z,49.27
2019-02-06T08:51:09.666Z,45.43
2019-02-06T08:53:50.353Z,39.27
2019-02-06T08:56:31.291Z,46.10
2019-02-06T08:59:12.071Z,41.70
2019-02-06T09:01:52.772Z,41.33
2019-02-06T09:04:34.169Z,43.13
2019-02-06T09:07:16.457Z,44.50
2019-02-06T09:09:56.762Z,46.10
2019-02-06T09:12:37.548Z,47.40
2019-02-06T09:15:18.458Z,48.90
2019-02-06T09:17:59.211Z,45.83
2019-02-06T09:20:39.879Z,46.30
2019-02-06T09:23:21.018Z,46.67
2019-02-06T09:26:01.278Z,46.17
2019-02-06T09:28:42.181Z,46.03
2019-02-06T09:31:22.725Z,47.93
2019-02-06T09:34:03.158Z,47.33
2019-02-06T09:36:43.975Z,47.80
2019-02-06T09:39:24.561Z,41.53
2019-02-06T09:42:08.496Z,46.63
2019-02-06T09:44:49.696Z,41.83
2019-02-06T09:47:30.887Z,43.80
2019-02-06T09:50:12.957Z,44.20
2019-02-06T09:52:53.580Z,41.17
2019-02-06T09:55:34.012Z,45.27
2019-02-06T09:58:14.868Z,46.03
2019-02-06T10:00:55.696Z,44.87
2019-02-06T10:03:35.922Z,40.83
2019-02-06T10:06:16.867Z,40.50
2019-02-06T10:08:57.619Z,45.27
2019-02-06T10:11:39.420Z,46.10
2019-02-06T10:14:21.224Z,40.33
2019-02-06T10:17:01.873Z,44.73
2019-02-06T10:19:42.806Z,42.87
2019-02-06T10:22:23.667Z,48.60
2019-02-06T10:25:04.550Z,41.77
2019-02-06T10:30:36.508Z,45.50
2019-02-06T10:33:18.925Z,42.47
2019-02-06T10:35:59.846Z,41.10
2019-02-06T10:38:41.893Z,43.90
2019-02-06T10:41:22.794Z,45.10
2019-02-06T10:44:03.513Z,46.80
2019-02-06T10:46:45.075Z,44.53
2019-02-06T10:49:25.352Z,45.17
2019-02-06T10:52:07.895Z,43.37
2019-02-06T10:54:48.736Z,48.20
2019-02-06T10:57:29.257Z,39.97
2019-02-06T11:00:09.864Z,43.10
2019-02-06T11:02:50.886Z,41.43
2019-02-06T11:05:31.501Z,41.00
2019-02-06T11:08:11.987Z,42.13
2019-02-06T11:10:52.913Z,45.63
2019-02-06T11:13:33.672Z,42.00
2019-02-06T11:16:14.223Z,42.00
2019-02-06T11:18:55.177Z,43.17
2019-02-06T11:21:36.165Z,39.17
2019-02-06T11:24:16.857Z,37.07
2019-02-06T11:26:57.431Z,39.90
2019-02-06T11:29:38.216Z,35.30
2019-02-06T11:32:19.148Z,38.77
2019-02-06T11:35:02.295Z,41.27
2019-02-06T11:37:42.007Z,39.97
2019-02-06T11:40:22.783Z,39.77
2019-02-06T11:43:03.363Z,39.73
2019-02-06T11:45:44.135Z,37.93
2019-02-06T11:48:25.582Z,41.13
2019-02-06T11:51:05.837Z,41.07
2019-02-06T11:53:46.568Z,39.90
2019-02-06T11:56:27.573Z,39.13
2019-02-06T11:59:07.921Z,39.30
2019-02-06T12:01:49.223Z,41.83
2019-02-06T12:04:30.023Z,39.57
2019-02-06T12:07:10.622Z,37.97
2019-02-06T12:09:52.079Z,46.43
2019-02-06T12:12:34.119Z,40.10
2019-02-06T12:15:15.254Z,39.77
2019-02-06T12:17:57.866Z,41.73
2019-02-06T12:20:38.570Z,34.27
2019-02-06T12:23:19.165Z,37.73
2019-02-06T12:26:01.562Z,36.90
2019-02-06T12:28:41.967Z,37.87
2019-02-06T12:31:22.280Z,36.70
2019-02-06T12:34:02.964Z,34.10
2019-02-06T12:36:44.526Z,35.97
2019-02-06T12:39:25.332Z,36.50
2019-02-06T12:42:06.019Z,35.23
2019-02-06T12:44:48.057Z,40.37
2019-02-06T12:47:29.907Z,36.20
2019-02-06T12:50:10.618Z,36.63
2019-02-06T12:52:51.402Z,36.60
2019-02-06T12:55:32.189Z,38.83
2019-02-06T12:58:12.736Z,38.47
2019-02-06T13:00:53.260Z,34.23
2019-02-06T13:03:34.052Z,34.23
2019-02-06T13:06:14.560Z,33.50
2019-02-06T13:08:55.050Z,34.50
2019-02-06T13:11:36.296Z,36.27
2019-02-06T13:14:19.107Z,38.30
2019-02-06T13:17:00.620Z,32.70
2019-02-06T13:19:45.301Z,30.97
2019-02-06T13:22:26.392Z,31.23
2019-02-06T13:25:07.166Z,33.07
2019-02-06T13:27:49.546Z,31.90
2019-02-06T13:30:31.019Z,32.77
2019-02-06T13:33:12.017Z,31.47
2019-02-06T13:35:53.607Z,33.93
2019-02-06T13:38:34.534Z,30.87
2019-02-06T13:41:14.935Z,34.13
2019-02-06T13:43:55.599Z,30.07
2019-02-06T13:46:37.276Z,34.23
2019-02-06T13:49:17.900Z,29.37
2019-02-06T13:51:58.219Z,34.60
2019-02-06T13:54:39.141Z,30.20
2019-02-06T13:57:20.146Z,31.77
2019-02-06T14:00:01.081Z,33.10
2019-02-06T14:02:43.416Z,31.87
2019-02-06T14:05:25.117Z,32.67
2019-02-06T14:08:07.255Z,31.50
2019-02-06T14:10:59.935Z,32.33
2019-02-06T14:13:32.190Z,28.40
2019-02-06T14:16:14.074Z,31.73
2019-02-06T14:18:57.111Z,31.73
2019-02-06T14:21:38.138Z,28.93
2019-02-06T14:24:20.246Z,28.50
2019-02-06T14:27:01.315Z,32.83
2019-02-06T14:29:41.591Z,30.23
2019-02-06T14:32:22.059Z,29.30
2019-02-06T14:37:46.976Z,29.33
2019-02-06T14:43:17.394Z,29.37
2019-02-06T14:46:02.070Z,29.47
2019-02-06T14:48:44.004Z,28.10
2019-02-06T14:51:25.947Z,29.13
2019-02-06T14:54:07.135Z,28.33
2019-02-06T14:56:48.579Z,28.93
2019-02-06T15:02:14.981Z,24.67
2019-02-06T15:04:56.434Z,38.33
2019-02-06T15:07:37.349Z,51.17
2019-02-06T15:10:18.308Z,71.60
2019-02-06T15:13:01.137Z,68.30
2019-02-06T15:15:40.851Z,48.30
2019-02-06T15:18:21.606Z,91.80
2019-02-06T15:21:03.566Z,35.23
2019-02-06T15:23:44.935Z,28.43
2019-02-06T15:26:28.693Z,44.03
2019-02-06T15:29:09.357Z,29.67
2019-02-06T15:31:51.011Z,35.40
2019-02-06T15:34:32.163Z,32.00
2019-02-06T15:37:13.043Z,33.73
2019-02-06T15:39:54.502Z,32.93
2019-02-06T15:42:39.352Z,30.40
2019-02-06T15:48:06.106Z,32.80
2019-02-06T15:50:47.081Z,26.23
2019-02-06T15:53:29.516Z,27.87
2019-02-06T15:56:10.184Z,28.23
2019-02-06T15:58:52.404Z,31.17
2019-02-06T16:01:34.310Z,29.43
2019-02-06T16:04:37.206Z,31.00
2019-02-06T16:07:18.004Z,34.07
2019-02-06T16:09:59.234Z,34.77
2019-02-06T16:12:43.061Z,31.90
2019-02-06T16:15:24.541Z,34.10
2019-02-06T16:18:32.617Z,30.03
2019-02-06T16:21:39.708Z,35.53
2019-02-06T16:24:46.841Z,37.20
2019-02-06T16:27:54.182Z,40.50
2019-02-06T16:31:02.455Z,39.87
2019-02-06T16:37:30.405Z,42.37
2019-02-06T16:40:39.159Z,48.97
2019-02-06T16:43:46.323Z,45.57
2019-02-06T16:49:59.212Z,45.30
2019-02-06T16:52:54.779Z,147.00
2019-02-06T16:56:03.655Z,79.90
2019-02-06T16:59:10.766Z,55.47
2019-02-06T17:01:53.037Z,48.07
2019-02-06T17:04:35.386Z,42.10
2019-02-06T17:07:16.579Z,37.63
2019-02-06T17:09:57.084Z,37.60
2019-02-06T17:12:38.943Z,36.50
2019-02-06T17:15:22.753Z,37.53
2019-02-06T17:18:04.242Z,38.37
2019-02-06T17:20:45.318Z,38.17
2019-02-06T17:23:26.198Z,38.67
2019-02-06T17:26:07.153Z,41.90
2019-02-06T17:28:48.067Z,39.47
2019-02-06T17:31:28.713Z,45.17
2019-02-06T17:36:53.601Z,49.13
2019-02-06T17:39:35.016Z,43.53
2019-02-06T17:42:16.113Z,37.53
2019-02-06T17:44:57.282Z,39.23
2019-02-06T17:47:37.999Z,38.37
2019-02-06T17:50:21.301Z,38.53
2019-02-06T17:53:02.153Z,38.67
2019-02-06T17:55:42.733Z,42.83
2019-02-06T17:58:23.715Z,39.60
2019-02-06T18:01:04.885Z,43.70
2019-02-06T18:06:36.552Z,45.50
2019-02-06T18:09:17.522Z,40.60
2019-02-06T18:11:59.289Z,43.33
2019-02-06T18:14:40.107Z,47.03
2019-02-06T18:17:21.443Z,49.40
2019-02-06T18:20:02.514Z,49.57
2019-02-06T18:22:43.155Z,44.80
2019-02-06T18:25:23.859Z,46.50
2019-02-06T18:28:04.458Z,42.20
2019-02-06T18:30:45.214Z,43.07
2019-02-06T18:33:25.823Z,42.30
2019-02-06T18:36:06.255Z,47.73
2019-02-06T18:38:48.677Z,43.33
2019-02-06T18:41:30.482Z,42.20
2019-02-06T18:44:11.619Z,47.03
2019-02-06T18:46:52.453Z,46.70
2019-02-06T18:49:33.177Z,45.10
2019-02-06T18:52:20.213Z,43.37
2019-02-06T18:54:57.098Z,45.03
2019-02-06T18:57:40.137Z,41.53
2019-02-06T19:00:22.294Z,39.80
2019-02-06T19:03:04.473Z,43.10
2019-02-06T19:05:45.294Z,41.97
2019-02-06T19:08:27.099Z,39.53
2019-02-06T19:11:07.931Z,45.57
2019-02-06T19:13:50.139Z,38.80
2019-02-06T19:16:31.866Z,41.10
2019-02-06T19:19:13.100Z,43.30
2019-02-06T19:21:54.536Z,40.00
2019-02-06T19:24:37.128Z,38.23
2019-02-06T19:27:19.010Z,40.23
2019-02-06T19:30:00.014Z,36.73
2019-02-06T19:32:44.469Z,35.90
2019-02-06T19:35:25.059Z,34.37
2019-02-06T19:38:05.999Z,35.97
2019-02-06T19:40:47.003Z,37.57
2019-02-06T19:43:28.485Z,37.90
2019-02-06T19:46:09.419Z,42.47
2019-02-06T19:48:50.082Z,38.67
2019-02-06T19:51:31.047Z,42.73
2019-02-06T19:54:11.904Z,44.07
2019-02-06T19:56:52.719Z,39.07
2019-02-06T19:59:35.485Z,40.17
2019-02-06T20:02:16.045Z,46.67
2019-02-06T20:04:58.677Z,43.33
2019-02-06T20:07:39.678Z,40.20
2019-02-06T20:10:21.027Z,45.23
2019-02-06T20:13:10.701Z,37.63
2019-02-06T20:15:45.706Z,38.27
2019-02-06T20:18:26.927Z,45.50
2019-02-06T20:21:07.526Z,42.80
2019-02-06T20:23:47.743Z,43.87
2019-02-06T20:26:31.441Z,39.40
2019-02-06T20:29:12.311Z,41.00
2019-02-06T20:31:52.913Z,41.53
2019-02-06T20:34:33.726Z,40.27
2019-02-06T20:37:14.374Z,36.73
2019-02-06T20:39:56.989Z,38.37
2019-02-06T20:42:39.252Z,35.67
2019-02-06T20:45:20.388Z,39.10
2019-02-06T20:48:01.244Z,36.97
2019-02-06T20:50:44.093Z,35.77
2019-02-06T20:53:24.694Z,34.30
2019-02-06T20:56:06.543Z,35.97
2019-02-06T20:58:49.270Z,34.00
2019-02-06T21:01:30.381Z,37.97
2019-02-06T21:04:10.952Z,34.77
2019-02-06T21:06:52.704Z,31.70
2019-02-06T21:09:33.478Z,31.87
2019-02-06T21:12:14.706Z,32.00
2019-02-06T21:14:55.787Z,34.47
2019-02-06T21:17:37.830Z,34.77
2019-02-06T21:20:19.082Z,36.13
2019-02-06T21:23:03.203Z,34.67
2019-02-06T21:25:44.070Z,38.03
2019-02-06T21:28:24.720Z,32.37
2019-02-06T21:31:06.184Z,31.07
2019-02-06T21:33:46.941Z,34.63
2019-02-06T21:36:28.426Z,33.67
2019-02-06T21:39:09.844Z,36.13
2019-02-06T21:41:50.750Z,34.83
2019-02-06T21:44:31.713Z,37.00
2019-02-06T21:47:12.284Z,31.97
2019-02-06T21:52:39.194Z,36.20
2019-02-06T21:55:19.703Z,35.97
2019-02-06T21:58:00.276Z,33.13
2019-02-06T22:00:41.160Z,29.73
2019-02-06T22:03:23.260Z,31.60
2019-02-06T22:06:06.620Z,31.90
2019-02-06T22:08:47.650Z,34.97
2019-02-06T22:11:28.752Z,31.63
2019-02-06T22:14:09.498Z,36.03
2019-02-06T22:16:51.700Z,34.77
2019-02-06T22:19:32.581Z,37.10
2019-02-06T22:22:14.422Z,35.50
2019-02-06T22:24:56.477Z,34.47
2019-02-06T22:27:38.404Z,37.40
2019-02-06T22:30:21.312Z,37.67
2019-02-06T22:33:02.096Z,34.40
2019-02-06T22:35:43.037Z,36.47
2019-02-06T22:38:24.566Z,35.13
2019-02-06T22:41:06.745Z,37.37
2019-02-06T22:43:47.872Z,36.53
2019-02-06T22:46:28.632Z,34.03
2019-02-06T22:49:09.983Z,37.00
2019-02-06T22:51:50.802Z,38.67
2019-02-06T22:54:31.342Z,34.90
2019-02-06T22:57:13.006Z,35.17
2019-02-06T22:59:54.892Z,33.40
2019-02-06T23:02:36.383Z,36.57
2019-02-06T23:05:17.110Z,36.53
2019-02-06T23:07:58.466Z,36.27
2019-02-06T23:10:39.658Z,40.13
2019-02-06T23:13:21.843Z,35.23
2019-02-06T23:16:04.304Z,37.37
2019-02-06T23:18:46.496Z,38.90
2019-02-06T23:21:28.408Z,35.00
2019-02-06T23:24:10.017Z,39.17
2019-02-06T23:26:50.991Z,38.47
2019-02-06T23:29:31.942Z,33.93
2019-02-06T23:32:12.918Z,36.60
2019-02-06T23:34:53.379Z,34.80
2019-02-06T23:37:35.561Z,38.53
2019-02-06T23:40:16.540Z,41.00
2019-02-06T23:42:58.494Z,43.20
2019-02-06T23:45:40.810Z,40.17
2019-02-06T23:48:21.304Z,38.60
2019-02-06T23:51:01.765Z,41.60
2019-02-06T23:53:42.863Z,36.73
2019-02-06T23:56:23.901Z,39.13
